»·PEaware :: N275ND KSNA-KAVX

N275ND :: KSNA-KAVX

FLIGHT INFORMATION

Flight Status: Arrived
Operator: Privately registered:
United States
More flights under this callsign
Pilot: John A. (19135)
Aircraft: CESSNA 172 SKYHAWK
(C172)
More flights by this aircraft type
Origin: KSNA John Wayne-Orange Co
United States
Destination: KAVX Catalina
United States
More flights between these airports :: More routes between these airports
Route: SLI V21 SXC KAVX
File this flight plan on PilotEdge
Remarks: I-7 Rating
Altitude:
(Current/Filed)
4,000ft
Speed:
(Current/Filed)
115kts
Departed: 07-Oct-19 09:45 AM
Arrived: 07-Oct-19 10:29 AM
Distance/Time
Traveled:
32nm/0:44
Distance/Time
To Go:
Arrived

Flight Plot

Page will automatically refresh every two minutes.

Flight plan parsing failed; only flown route is shown


Map Options




Map Legend


Flown Route
Filed Route
Departure Airport
Arrival Airport
Navaid (VOR, NDB)
Fix

Horizontal Profiles

Position Reports

Time Latitude Longitude Heading Altitude Ground
Speed
07-Oct-19 09:30 33.667945 -117.870827 221 60ft 0kts
07-Oct-19 09:31 33.667945 -117.870827 221 60ft 0kts
07-Oct-19 09:32 33.667945 -117.870827 221 60ft 0kts
07-Oct-19 09:33 33.667945 -117.870827 221 60ft 0kts
07-Oct-19 09:34 33.667945 -117.870827 221 60ft 0kts
07-Oct-19 09:35 33.667945 -117.870827 221 60ft 0kts
07-Oct-19 09:36 33.667945 -117.870827 221 60ft 0kts
07-Oct-19 09:37 33.668447 -117.871600 28 60ft 0kts
07-Oct-19 09:38 33.672239 -117.867970 29 60ft 23kts
07-Oct-19 09:39 33.675377 -117.866330 33 60ft 8kts
07-Oct-19 09:40 33.679921 -117.863511 316 60ft 4kts
07-Oct-19 09:41 33.679936 -117.863529 314 60ft 0kts
07-Oct-19 09:42 33.679936 -117.863529 314 60ft 0kts
07-Oct-19 09:43 33.679936 -117.863529 314 60ft 0kts
07-Oct-19 09:44 33.675174 -117.867458 211 146ft 75kts
07-Oct-19 09:45 33.660339 -117.886433 227 1070ft 81kts
07-Oct-19 09:46 33.646648 -117.907294 231 2003ft 80kts
07-Oct-19 09:47 33.633356 -117.929379 231 2857ft 82kts
07-Oct-19 09:48 33.618582 -117.950431 227 3672ft 82kts
07-Oct-19 09:49 33.603019 -117.976840 228 3947ft 110kts
07-Oct-19 09:50 33.584743 -118.006304 232 3934ft 112kts
07-Oct-19 09:51 33.567796 -118.036340 240 3971ft 113kts
07-Oct-19 09:52 33.550823 -118.067404 239 3983ft 111kts
07-Oct-19 09:53 33.532771 -118.097632 229 3978ft 111kts
07-Oct-19 09:54 33.513800 -118.126874 239 3970ft 111kts
07-Oct-19 09:55 33.495172 -118.156105 225 3963ft 111kts
07-Oct-19 09:56 33.475668 -118.185001 229 3965ft 111kts
07-Oct-19 09:57 33.457838 -118.215173 228 3948ft 112kts
07-Oct-19 09:58 33.439520 -118.244996 237 3955ft 111kts
07-Oct-19 09:59 33.423721 -118.276792 229 3958ft 110kts
07-Oct-19 10:00 33.406311 -118.307377 232 3946ft 110kts
07-Oct-19 10:01 33.392743 -118.340360 256 3941ft 111kts
07-Oct-19 10:02 33.385742 -118.376363 250 3942ft 111kts
07-Oct-19 10:03 33.378204 -118.411001 285 4052ft 104kts
07-Oct-19 10:04 33.404848 -118.416689 8 3979ft 113kts
07-Oct-19 10:05 33.436080 -118.412520 8 3779ft 108kts
07-Oct-19 10:06 33.465608 -118.408689 1 3691ft 110kts
07-Oct-19 10:07 33.495118 -118.407369 4 3930ft 100kts
07-Oct-19 10:08 33.524492 -118.404267 5 3863ft 119kts
07-Oct-19 10:09 33.550358 -118.422154 318 3742ft 110kts
07-Oct-19 10:10 33.572597 -118.447407 320 3765ft 111kts
07-Oct-19 10:11 33.598717 -118.468995 2 3654ft 112kts
07-Oct-19 10:12 33.596690 -118.443508 128 3768ft 100kts
07-Oct-19 10:13 33.576160 -118.414977 135 3593ft 115kts
07-Oct-19 10:14 33.547615 -118.403310 186 3388ft 112kts
07-Oct-19 10:15 33.518388 -118.406082 184 3310ft 105kts
07-Oct-19 10:16 33.488523 -118.410943 188 2896ft 108kts
07-Oct-19 10:17 33.458380 -118.414033 181 2404ft 107kts
07-Oct-19 10:18 33.429621 -118.419690 218 2080ft 98kts
07-Oct-19 10:19 33.439053 -118.412895 352 2074ft 123kts
07-Oct-19 10:20 33.447631 -118.389532 138 1999ft 82kts
07-Oct-19 10:21 33.426979 -118.382913 179 1847ft 71kts
07-Oct-19 10:22 33.413068 -118.384248 189 1799ft 58kts
07-Oct-19 10:23 33.407794 -118.385581 180 1678ft 69kts
07-Oct-19 10:24 33.401429 -118.390329 322 1554ft 65kts
07-Oct-19 10:25 33.419213 -118.394344 344 1585ft 69kts
07-Oct-19 10:26 33.426444 -118.409808 203 1790ft 68kts
07-Oct-19 10:27 33.412977 -118.403608 204 1700ft 55kts
07-Oct-19 10:28 33.404760 -118.415035 164 1543ft 6kts
07-Oct-19 10:29 33.403874 -118.415224 316 1546ft 0kts
07-Oct-19 10:30 33.403874 -118.415224 316 1546ft 0kts
07-Oct-19 10:31 33.403874 -118.415224 316 1546ft 0kts
07-Oct-19 10:32 33.403874 -118.415224 316 1546ft 0kts
07-Oct-19 10:33 33.403874 -118.415224 316 1546ft 0kts

Navigation Log

Ident Type
Flight plan parsing failed, navigation log unavailable